sensor_id;sensor_type;location;lat;lon;timestamp;temperature;humidity
48946;DHT22;34999;50.940;3.998;2024-01-06T00:00:54;6.60;99.90
48946;DHT22;34999;50.940;3.998;2024-01-06T00:03:23;6.60;99.90
48946;DHT22;34999;50.940;3.998;2024-01-06T00:05:52;6.60;99.90
48946;DHT22;34999;50.940;3.998;2024-01-06T00:08:21;6.60;99.90
48946;DHT22;34999;50.940;3.998;2024-01-06T00:10:49;6.60;99.90
48946;DHT22;34999;50.940;3.998;2024-01-06T00:13:17;6.60;99.90
48946;DHT22;34999;50.940;3.998;2024-01-06T00:15:46;6.60;99.90
48946;DHT22;34999;50.940;3.998;2024-01-06T00:18:14;6.60;99.90
48946;DHT22;34999;50.940;3.998;2024-01-06T00:20:42;6.60;99.90
48946;DHT22;34999;50.940;3.998;2024-01-06T00:23:12;6.60;99.90
48946;DHT22;34999;50.940;3.998;2024-01-06T00:25:40;6.60;99.90
48946;DHT22;34999;50.940;3.998;2024-01-06T00:28:09;6.60;99.90
48946;DHT22;34999;50.940;3.998;2024-01-06T00:30:37;6.60;99.90
48946;DHT22;34999;50.940;3.998;2024-01-06T00:33:07;6.60;99.90
48946;DHT22;34999;50.940;3.998;2024-01-06T00:35:35;6.60;99.90
48946;DHT22;34999;50.940;3.998;2024-01-06T00:38:03;6.60;99.90
48946;DHT22;34999;50.940;3.998;2024-01-06T00:40:33;6.60;99.90
48946;DHT22;34999;50.940;3.998;2024-01-06T00:43:02;6.60;99.90
48946;DHT22;34999;50.940;3.998;2024-01-06T00:45:30;6.60;99.90
48946;DHT22;34999;50.940;3.998;2024-01-06T00:47:58;6.60;99.90
48946;DHT22;34999;50.940;3.998;2024-01-06T00:50:27;6.60;99.90
48946;DHT22;34999;50.940;3.998;2024-01-06T00:52:55;6.60;99.90
48946;DHT22;34999;50.940;3.998;2024-01-06T00:55:23;6.60;99.90
48946;DHT22;34999;50.940;3.998;2024-01-06T00:57:53;6.60;99.90
48946;DHT22;34999;50.940;3.998;2024-01-06T01:00:22;6.60;99.90
48946;DHT22;34999;50.940;3.998;2024-01-06T01:02:50;6.60;99.90
48946;DHT22;34999;50.940;3.998;2024-01-06T01:05:19;6.60;99.90
48946;DHT22;34999;50.940;3.998;2024-01-06T01:07:47;6.60;99.90
48946;DHT22;34999;50.940;3.998;2024-01-06T01:10:15;6.60;99.90
48946;DHT22;34999;50.940;3.998;2024-01-06T01:12:43;6.60;99.90
48946;DHT22;34999;50.940;3.998;2024-01-06T01:15:13;6.60;99.90
48946;DHT22;34999;50.940;3.998;2024-01-06T01:17:41;6.60;99.90
48946;DHT22;34999;50.940;3.998;2024-01-06T01:20:10;6.60;99.90
48946;DHT22;34999;50.940;3.998;2024-01-06T01:22:39;6.60;99.90
48946;DHT22;34999;50.940;3.998;2024-01-06T01:25:07;6.70;99.90
48946;DHT22;34999;50.940;3.998;2024-01-06T01:27:35;6.60;99.90
48946;DHT22;34999;50.940;3.998;2024-01-06T01:30:04;6.60;99.90
48946;DHT22;34999;50.940;3.998;2024-01-06T01:32:36;6.60;99.90
48946;DHT22;34999;50.940;3.998;2024-01-06T01:35:06;6.60;99.90
48946;DHT22;34999;50.940;3.998;2024-01-06T01:37:34;6.60;99.90
48946;DHT22;34999;50.940;3.998;2024-01-06T01:40:03;6.60;99.90
48946;DHT22;34999;50.940;3.998;2024-01-06T01:42:33;6.60;99.90
48946;DHT22;34999;50.940;3.998;2024-01-06T01:45:01;6.60;99.90
48946;DHT22;34999;50.940;3.998;2024-01-06T01:47:30;6.50;99.90
48946;DHT22;34999;50.940;3.998;2024-01-06T01:50:01;6.60;99.90
48946;DHT22;34999;50.940;3.998;2024-01-06T01:52:30;6.60;99.90
48946;DHT22;34999;50.940;3.998;2024-01-06T01:54:58;6.60;99.90
48946;DHT22;34999;50.940;3.998;2024-01-06T01:57:27;6.60;99.90
48946;DHT22;34999;50.940;3.998;2024-01-06T01:59:57;6.60;99.90
48946;DHT22;34999;50.940;3.998;2024-01-06T02:02:25;6.50;99.90
48946;DHT22;34999;50.940;3.998;2024-01-06T02:04:55;6.60;99.90
48946;DHT22;34999;50.940;3.998;2024-01-06T02:07:25;6.60;99.90
48946;DHT22;34999;50.940;3.998;2024-01-06T02:09:53;6.60;99.90
48946;DHT22;34999;50.940;3.998;2024-01-06T02:12:22;6.60;99.90
48946;DHT22;34999;50.940;3.998;2024-01-06T02:14:50;6.60;99.90
48946;DHT22;34999;50.940;3.998;2024-01-06T02:17:18;6.60;99.90
48946;DHT22;34999;50.940;3.998;2024-01-06T02:19:47;6.60;99.90
48946;DHT22;34999;50.940;3.998;2024-01-06T02:22:17;6.60;99.90
48946;DHT22;34999;50.940;3.998;2024-01-06T02:24:45;6.60;99.90
48946;DHT22;34999;50.940;3.998;2024-01-06T02:27:14;6.60;99.90
48946;DHT22;34999;50.940;3.998;2024-01-06T02:29:42;6.60;99.90
48946;DHT22;34999;50.940;3.998;2024-01-06T02:32:10;6.60;99.90
48946;DHT22;34999;50.940;3.998;2024-01-06T02:34:39;6.60;99.90
48946;DHT22;34999;50.940;3.998;2024-01-06T02:37:07;6.60;99.90
48946;DHT22;34999;50.940;3.998;2024-01-06T02:39:37;6.60;99.90
48946;DHT22;34999;50.940;3.998;2024-01-06T02:42:06;6.60;99.90
48946;DHT22;34999;50.940;3.998;2024-01-06T02:44:34;6.60;99.90
48946;DHT22;34999;50.940;3.998;2024-01-06T02:47:02;6.60;99.90
48946;DHT22;34999;50.940;3.998;2024-01-06T02:49:31;6.60;99.90
48946;DHT22;34999;50.940;3.998;2024-01-06T02:51:59;6.60;99.90
48946;DHT22;34999;50.940;3.998;2024-01-06T02:54:27;6.70;99.90
48946;DHT22;34999;50.940;3.998;2024-01-06T02:56:57;6.60;99.90
48946;DHT22;34999;50.940;3.998;2024-01-06T02:59:25;6.70;99.90
48946;DHT22;34999;50.940;3.998;2024-01-06T03:01:53;6.70;99.90
48946;DHT22;34999;50.940;3.998;2024-01-06T03:04:21;6.60;99.90
48946;DHT22;34999;50.940;3.998;2024-01-06T03:06:50;6.60;99.90
48946;DHT22;34999;50.940;3.998;2024-01-06T03:09:20;6.60;99.90
48946;DHT22;34999;50.940;3.998;2024-01-06T03:11:48;6.70;99.90
48946;DHT22;34999;50.940;3.998;2024-01-06T03:14:18;6.70;99.90
48946;DHT22;34999;50.940;3.998;2024-01-06T03:16:46;6.60;99.90
48946;DHT22;34999;50.940;3.998;2024-01-06T03:19:14;6.70;99.90
48946;DHT22;34999;50.940;3.998;2024-01-06T03:21:43;6.70;99.90
48946;DHT22;34999;50.940;3.998;2024-01-06T03:24:11;6.70;99.90
48946;DHT22;34999;50.940;3.998;2024-01-06T03:26:39;6.70;99.90
48946;DHT22;34999;50.940;3.998;2024-01-06T03:29:07;6.70;99.90
48946;DHT22;34999;50.940;3.998;2024-01-06T03:31:37;6.60;99.90
48946;DHT22;34999;50.940;3.998;2024-01-06T03:34:05;6.70;99.90
48946;DHT22;34999;50.940;3.998;2024-01-06T03:36:35;6.70;99.90
48946;DHT22;34999;50.940;3.998;2024-01-06T03:39:03;6.70;99.90
48946;DHT22;34999;50.940;3.998;2024-01-06T03:41:32;6.70;99.90
48946;DHT22;34999;50.940;3.998;2024-01-06T03:44:00;6.60;99.90
48946;DHT22;34999;50.940;3.998;2024-01-06T03:46:28;6.60;99.90
48946;DHT22;34999;50.940;3.998;2024-01-06T03:48:58;6.60;99.90
48946;DHT22;34999;50.940;3.998;2024-01-06T03:51:26;6.60;99.90
48946;DHT22;34999;50.940;3.998;2024-01-06T03:53:55;6.60;99.90
48946;DHT22;34999;50.940;3.998;2024-01-06T03:56:23;6.70;99.90
48946;DHT22;34999;50.940;3.998;2024-01-06T03:58:51;6.70;99.90
48946;DHT22;34999;50.940;3.998;2024-01-06T04:01:20;6.70;99.90
48946;DHT22;34999;50.940;3.998;2024-01-06T04:03:49;6.60;99.90
48946;DHT22;34999;50.940;3.998;2024-01-06T04:06:19;6.60;99.90
48946;DHT22;34999;50.940;3.998;2024-01-06T04:08:47;6.70;99.90
48946;DHT22;34999;50.940;3.998;2024-01-06T04:11:15;6.60;99.90
48946;DHT22;34999;50.940;3.998;2024-01-06T04:13:44;6.60;99.90
48946;DHT22;34999;50.940;3.998;2024-01-06T04:16:13;6.60;99.90
48946;DHT22;34999;50.940;3.998;2024-01-06T04:18:41;6.60;99.90
48946;DHT22;34999;50.940;3.998;2024-01-06T04:21:10;6.60;99.90
48946;DHT22;34999;50.940;3.998;2024-01-06T04:23:40;6.60;99.90
48946;DHT22;34999;50.940;3.998;2024-01-06T04:26:08;6.60;99.90
48946;DHT22;34999;50.940;3.998;2024-01-06T04:28:36;6.60;99.90
48946;DHT22;34999;50.940;3.998;2024-01-06T04:31:05;6.60;99.90
48946;DHT22;34999;50.940;3.998;2024-01-06T04:33:37;6.60;99.90
48946;DHT22;34999;50.940;3.998;2024-01-06T04:36:07;6.60;99.90
48946;DHT22;34999;50.940;3.998;2024-01-06T04:38:36;6.60;99.90
48946;DHT22;34999;50.940;3.998;2024-01-06T04:41:06;6.60;99.90
48946;DHT22;34999;50.940;3.998;2024-01-06T04:43:34;6.50;99.90
48946;DHT22;34999;50.940;3.998;2024-01-06T04:46:02;6.50;99.90
48946;DHT22;34999;50.940;3.998;2024-01-06T04:48:30;6.50;99.90
48946;DHT22;34999;50.940;3.998;2024-01-06T04:50:59;6.50;99.90
48946;DHT22;34999;50.940;3.998;2024-01-06T04:53:30;6.50;99.90
48946;DHT22;34999;50.940;3.998;2024-01-06T04:55:58;6.50;99.90
48946;DHT22;34999;50.940;3.998;2024-01-06T04:58:27;6.50;99.90
48946;DHT22;34999;50.940;3.998;2024-01-06T05:00:56;6.50;99.90
48946;DHT22;34999;50.940;3.998;2024-01-06T05:03:24;6.50;99.90
48946;DHT22;34999;50.940;3.998;2024-01-06T05:05:53;6.50;99.90
48946;DHT22;34999;50.940;3.998;2024-01-06T05:08:21;6.40;99.90
48946;DHT22;34999;50.940;3.998;2024-01-06T05:10:51;6.40;99.90
48946;DHT22;34999;50.940;3.998;2024-01-06T05:13:19;6.40;99.90
48946;DHT22;34999;50.940;3.998;2024-01-06T05:15:49;6.40;99.90
48946;DHT22;34999;50.940;3.998;2024-01-06T05:18:17;6.40;99.90
48946;DHT22;34999;50.940;3.998;2024-01-06T05:20:46;6.40;99.90
48946;DHT22;34999;50.940;3.998;2024-01-06T05:23:14;6.40;99.90
48946;DHT22;34999;50.940;3.998;2024-01-06T05:25:42;6.40;99.90
48946;DHT22;34999;50.940;3.998;2024-01-06T05:28:10;6.40;99.90
48946;DHT22;34999;50.940;3.998;2024-01-06T05:30:39;6.40;99.90
48946;DHT22;34999;50.940;3.998;2024-01-06T05:33:10;6.40;99.90
48946;DHT22;34999;50.940;3.998;2024-01-06T05:35:41;6.40;99.90
48946;DHT22;34999;50.940;3.998;2024-01-06T05:38:09;6.30;99.90
48946;DHT22;34999;50.940;3.998;2024-01-06T05:40:38;6.30;99.90
48946;DHT22;34999;50.940;3.998;2024-01-06T05:43:06;6.30;99.90
48946;DHT22;34999;50.940;3.998;2024-01-06T05:45:34;6.30;99.90
48946;DHT22;34999;50.940;3.998;2024-01-06T05:48:05;6.30;99.90
48946;DHT22;34999;50.940;3.998;2024-01-06T05:50:38;6.30;99.90
48946;DHT22;34999;50.940;3.998;2024-01-06T05:53:07;6.30;99.90
48946;DHT22;34999;50.940;3.998;2024-01-06T05:55:36;6.30;99.90
48946;DHT22;34999;50.940;3.998;2024-01-06T05:58:05;6.20;99.90
48946;DHT22;34999;50.940;3.998;2024-01-06T06:00:33;6.20;99.90
48946;DHT22;34999;50.940;3.998;2024-01-06T06:03:02;6.20;99.90
48946;DHT22;34999;50.940;3.998;2024-01-06T06:05:30;6.20;99.90
48946;DHT22;34999;50.940;3.998;2024-01-06T06:07:59;6.20;99.90
48946;DHT22;34999;50.940;3.998;2024-01-06T06:10:28;6.20;99.90
48946;DHT22;34999;50.940;3.998;2024-01-06T06:13:08;6.20;99.90
48946;DHT22;34999;50.940;3.998;2024-01-06T06:15:38;6.20;99.90
48946;DHT22;34999;50.940;3.998;2024-01-06T06:18:06;6.20;99.90
48946;DHT22;34999;50.940;3.998;2024-01-06T06:20:35;6.20;99.90
48946;DHT22;34999;50.940;3.998;2024-01-06T06:23:04;6.20;99.90
48946;DHT22;34999;50.940;3.998;2024-01-06T06:25:32;6.20;99.90
48946;DHT22;34999;50.940;3.998;2024-01-06T06:28:01;6.20;99.90
48946;DHT22;34999;50.940;3.998;2024-01-06T06:30:30;6.20;99.90
48946;DHT22;34999;50.940;3.998;2024-01-06T06:32:58;6.20;99.90
48946;DHT22;34999;50.940;3.998;2024-01-06T06:35:27;6.10;99.90
48946;DHT22;34999;50.940;3.998;2024-01-06T06:37:55;6.00;99.90
48946;DHT22;34999;50.940;3.998;2024-01-06T06:40:25;5.90;99.90
48946;DHT22;34999;50.940;3.998;2024-01-06T06:42:53;5.90;99.90
48946;DHT22;34999;50.940;3.998;2024-01-06T06:45:22;5.90;99.90
48946;DHT22;34999;50.940;3.998;2024-01-06T06:47:50;5.90;99.90
48946;DHT22;34999;50.940;3.998;2024-01-06T06:50:19;5.90;99.90
48946;DHT22;34999;50.940;3.998;2024-01-06T06:52:47;5.90;99.90
48946;DHT22;34999;50.940;3.998;2024-01-06T06:55:16;5.90;99.90
48946;DHT22;34999;50.940;3.998;2024-01-06T06:57:46;5.90;99.90
48946;DHT22;34999;50.940;3.998;2024-01-06T07:00:15;5.90;99.90
48946;DHT22;34999;50.940;3.998;2024-01-06T07:02:44;5.90;99.90
48946;DHT22;34999;50.940;3.998;2024-01-06T07:05:12;5.90;99.90
48946;DHT22;34999;50.940;3.998;2024-01-06T07:07:40;5.90;99.90
48946;DHT22;34999;50.940;3.998;2024-01-06T07:10:11;5.90;99.90
48946;DHT22;34999;50.940;3.998;2024-01-06T07:12:39;5.80;99.90
48946;DHT22;34999;50.940;3.998;2024-01-06T07:15:09;5.80;99.90
48946;DHT22;34999;50.940;3.998;2024-01-06T07:17:38;5.80;99.90
48946;DHT22;34999;50.940;3.998;2024-01-06T07:20:08;5.70;99.90
48946;DHT22;34999;50.940;3.998;2024-01-06T07:22:36;5.70;99.90
48946;DHT22;34999;50.940;3.998;2024-01-06T07:25:05;5.70;99.90
48946;DHT22;34999;50.940;3.998;2024-01-06T07:27:34;5.70;99.90
48946;DHT22;34999;50.940;3.998;2024-01-06T07:30:03;5.70;99.90
48946;DHT22;34999;50.940;3.998;2024-01-06T07:32:33;5.70;99.90
48946;DHT22;34999;50.940;3.998;2024-01-06T07:35:01;5.70;99.90
48946;DHT22;34999;50.940;3.998;2024-01-06T07:37:34;5.70;99.90
48946;DHT22;34999;50.940;3.998;2024-01-06T07:40:02;5.70;99.90
48946;DHT22;34999;50.940;3.998;2024-01-06T07:42:30;5.70;99.90
48946;DHT22;34999;50.940;3.998;2024-01-06T07:44:58;5.70;99.90
48946;DHT22;34999;50.940;3.998;2024-01-06T07:47:27;5.70;99.90
48946;DHT22;34999;50.940;3.998;2024-01-06T07:49:56;5.80;99.90
48946;DHT22;34999;50.940;3.998;2024-01-06T07:52:25;5.70;99.90
48946;DHT22;34999;50.940;3.998;2024-01-06T07:54:53;5.70;99.90
48946;DHT22;34999;50.940;3.998;2024-01-06T07:57:22;5.80;99.90
48946;DHT22;34999;50.940;3.998;2024-01-06T07:59:51;5.80;99.90
48946;DHT22;34999;50.940;3.998;2024-01-06T08:02:19;5.70;99.90
48946;DHT22;34999;50.940;3.998;2024-01-06T08:04:48;5.70;99.90
48946;DHT22;34999;50.940;3.998;2024-01-06T08:07:18;5.70;99.90
48946;DHT22;34999;50.940;3.998;2024-01-06T08:09:46;5.70;99.90
48946;DHT22;34999;50.940;3.998;2024-01-06T08:12:15;5.70;99.90
48946;DHT22;34999;50.940;3.998;2024-01-06T08:14:43;5.70;99.90
48946;DHT22;34999;50.940;3.998;2024-01-06T08:17:11;5.70;99.90
48946;DHT22;34999;50.940;3.998;2024-01-06T08:19:44;5.70;99.90
48946;DHT22;34999;50.940;3.998;2024-01-06T08:22:13;5.70;99.90
48946;DHT22;34999;50.940;3.998;2024-01-06T08:24:43;5.70;99.90
48946;DHT22;34999;50.940;3.998;2024-01-06T08:27:11;5.60;99.90
48946;DHT22;34999;50.940;3.998;2024-01-06T08:29:39;5.60;99.90
48946;DHT22;34999;50.940;3.998;2024-01-06T08:32:08;5.60;99.90
48946;DHT22;34999;50.940;3.998;2024-01-06T08:34:37;5.60;99.90
48946;DHT22;34999;50.940;3.998;2024-01-06T08:37:05;5.70;99.90
48946;DHT22;34999;50.940;3.998;2024-01-06T08:39:33;5.70;99.90
48946;DHT22;34999;50.940;3.998;2024-01-06T08:42:04;5.70;99.90
48946;DHT22;34999;50.940;3.998;2024-01-06T08:44:32;5.70;99.90
48946;DHT22;34999;50.940;3.998;2024-01-06T08:47:00;5.60;99.90
48946;DHT22;34999;50.940;3.998;2024-01-06T08:49:29;5.60;99.90
48946;DHT22;34999;50.940;3.998;2024-01-06T08:51:58;5.50;99.90
48946;DHT22;34999;50.940;3.998;2024-01-06T08:54:26;5.50;99.90
48946;DHT22;34999;50.940;3.998;2024-01-06T08:56:55;5.60;99.90
48946;DHT22;34999;50.940;3.998;2024-01-06T08:59:25;5.50;99.90
48946;DHT22;34999;50.940;3.998;2024-01-06T09:01:53;5.50;99.90
48946;DHT22;34999;50.940;3.998;2024-01-06T09:04:22;5.50;99.90
48946;DHT22;34999;50.940;3.998;2024-01-06T09:06:51;5.50;99.90
48946;DHT22;34999;50.940;3.998;2024-01-06T09:09:19;5.50;99.90
48946;DHT22;34999;50.940;3.998;2024-01-06T09:11:47;5.50;99.90
48946;DHT22;34999;50.940;3.998;2024-01-06T09:14:18;5.60;99.90
48946;DHT22;34999;50.940;3.998;2024-01-06T09:16:47;5.50;99.90
48946;DHT22;34999;50.940;3.998;2024-01-06T09:19:15;5.60;99.90
48946;DHT22;34999;50.940;3.998;2024-01-06T09:21:44;5.50;99.90
48946;DHT22;34999;50.940;3.998;2024-01-06T09:24:12;5.50;99.90
48946;DHT22;34999;50.940;3.998;2024-01-06T09:26:41;5.50;99.90
48946;DHT22;34999;50.940;3.998;2024-01-06T09:29:09;5.50;99.90
48946;DHT22;34999;50.940;3.998;2024-01-06T09:31:38;5.40;99.90
48946;DHT22;34999;50.940;3.998;2024-01-06T09:34:10;5.50;99.90
48946;DHT22;34999;50.940;3.998;2024-01-06T09:36:39;5.50;99.90
48946;DHT22;34999;50.940;3.998;2024-01-06T09:39:08;5.40;99.90
48946;DHT22;34999;50.940;3.998;2024-01-06T09:41:36;5.40;99.90
48946;DHT22;34999;50.940;3.998;2024-01-06T09:44:04;5.30;99.90
48946;DHT22;34999;50.940;3.998;2024-01-06T09:46:33;5.30;99.90
48946;DHT22;34999;50.940;3.998;2024-01-06T09:49:02;5.30;99.90
48946;DHT22;34999;50.940;3.998;2024-01-06T09:51:35;5.30;99.90
48946;DHT22;34999;50.940;3.998;2024-01-06T09:54:08;5.40;99.90
48946;DHT22;34999;50.940;3.998;2024-01-06T09:56:39;5.30;99.90
48946;DHT22;34999;50.940;3.998;2024-01-06T09:59:07;5.30;99.90
48946;DHT22;34999;50.940;3.998;2024-01-06T10:01:36;5.30;99.90
48946;DHT22;34999;50.940;3.998;2024-01-06T10:04:04;5.30;99.90
48946;DHT22;34999;50.940;3.998;2024-01-06T10:06:34;5.30;99.90
48946;DHT22;34999;50.940;3.998;2024-01-06T10:09:03;5.30;99.90
48946;DHT22;34999;50.940;3.998;2024-01-06T10:11:32;5.30;99.90
48946;DHT22;34999;50.940;3.998;2024-01-06T10:14:01;5.20;99.90
48946;DHT22;34999;50.940;3.998;2024-01-06T10:16:30;5.20;99.90
48946;DHT22;34999;50.940;3.998;2024-01-06T10:18:58;5.10;99.90
48946;DHT22;34999;50.940;3.998;2024-01-06T10:21:26;5.20;99.90
48946;DHT22;34999;50.940;3.998;2024-01-06T10:23:56;5.20;99.90
48946;DHT22;34999;50.940;3.998;2024-01-06T10:26:24;5.20;99.90
48946;DHT22;34999;50.940;3.998;2024-01-06T10:28:53;5.30;99.90
48946;DHT22;34999;50.940;3.998;2024-01-06T10:31:21;5.30;99.90
48946;DHT22;34999;50.940;3.998;2024-01-06T10:33:49;5.40;99.90
48946;DHT22;34999;50.940;3.998;2024-01-06T10:36:18;5.40;99.90
48946;DHT22;34999;50.940;3.998;2024-01-06T10:38:46;5.40;99.90
48946;DHT22;34999;50.940;3.998;2024-01-06T10:41:16;5.50;99.90
48946;DHT22;34999;50.940;3.998;2024-01-06T10:43:45;5.40;99.90
48946;DHT22;34999;50.940;3.998;2024-01-06T10:46:14;5.40;99.90
48946;DHT22;34999;50.940;3.998;2024-01-06T10:48:44;5.40;99.90
48946;DHT22;34999;50.940;3.998;2024-01-06T10:51:13;5.40;99.90
48946;DHT22;34999;50.940;3.998;2024-01-06T10:53:43;5.40;99.90
48946;DHT22;34999;50.940;3.998;2024-01-06T10:56:11;5.30;99.90
48946;DHT22;34999;50.940;3.998;2024-01-06T10:58:45;5.30;99.90
48946;DHT22;34999;50.940;3.998;2024-01-06T11:01:17;5.30;99.90
48946;DHT22;34999;50.940;3.998;2024-01-06T11:03:49;5.30;99.90
48946;DHT22;34999;50.940;3.998;2024-01-06T11:06:18;5.30;99.90
48946;DHT22;34999;50.940;3.998;2024-01-06T11:08:51;5.20;99.90
48946;DHT22;34999;50.940;3.998;2024-01-06T11:11:21;5.20;99.90
48946;DHT22;34999;50.940;3.998;2024-01-06T11:13:52;5.20;99.90
48946;DHT22;34999;50.940;3.998;2024-01-06T11:16:36;5.20;99.90
48946;DHT22;34999;50.940;3.998;2024-01-06T11:19:43;5.20;99.90
48946;DHT22;34999;50.940;3.998;2024-01-06T11:22:20;5.20;99.90
48946;DHT22;34999;50.940;3.998;2024-01-06T11:24:49;5.20;99.90
48946;DHT22;34999;50.940;3.998;2024-01-06T11:27:18;5.20;99.90
48946;DHT22;34999;50.940;3.998;2024-01-06T11:29:48;5.10;99.90
48946;DHT22;34999;50.940;3.998;2024-01-06T11:32:24;5.10;99.90
48946;DHT22;34999;50.940;3.998;2024-01-06T11:34:54;5.10;99.90
48946;DHT22;34999;50.940;3.998;2024-01-06T11:37:25;5.20;99.90
48946;DHT22;34999;50.940;3.998;2024-01-06T11:39:53;5.10;99.90
48946;DHT22;34999;50.940;3.998;2024-01-06T11:42:22;5.10;99.90
48946;DHT22;34999;50.940;3.998;2024-01-06T11:45:03;5.10;99.90
48946;DHT22;34999;50.940;3.998;2024-01-06T11:47:33;5.20;99.90
48946;DHT22;34999;50.940;3.998;2024-01-06T11:50:03;5.30;99.90
48946;DHT22;34999;50.940;3.998;2024-01-06T11:52:32;5.30;99.90
48946;DHT22;34999;50.940;3.998;2024-01-06T11:55:01;5.20;99.90
48946;DHT22;34999;50.940;3.998;2024-01-06T11:57:29;5.20;99.90
48946;DHT22;34999;50.940;3.998;2024-01-06T11:59:58;5.20;99.90
48946;DHT22;34999;50.940;3.998;2024-01-06T12:02:27;5.30;99.90
48946;DHT22;34999;50.940;3.998;2024-01-06T12:04:55;5.20;99.90
48946;DHT22;34999;50.940;3.998;2024-01-06T12:07:24;5.20;99.90
48946;DHT22;34999;50.940;3.998;2024-01-06T12:10:01;5.20;99.90
48946;DHT22;34999;50.940;3.998;2024-01-06T12:12:30;5.20;99.90
48946;DHT22;34999;50.940;3.998;2024-01-06T12:14:59;5.20;99.90
48946;DHT22;34999;50.940;3.998;2024-01-06T12:17:30;5.30;99.90
48946;DHT22;34999;50.940;3.998;2024-01-06T12:19:59;5.30;99.90
48946;DHT22;34999;50.940;3.998;2024-01-06T12:22:27;5.30;99.90
48946;DHT22;34999;50.940;3.998;2024-01-06T12:24:55;5.30;99.90
48946;DHT22;34999;50.940;3.998;2024-01-06T12:27:26;5.40;99.90
48946;DHT22;34999;50.940;3.998;2024-01-06T12:29:54;5.40;99.90
48946;DHT22;34999;50.940;3.998;2024-01-06T12:32:23;5.40;99.90
48946;DHT22;34999;50.940;3.998;2024-01-06T12:34:53;5.50;99.90
48946;DHT22;34999;50.940;3.998;2024-01-06T12:37:23;5.50;99.90
48946;DHT22;34999;50.940;3.998;2024-01-06T12:39:51;5.50;99.90
48946;DHT22;34999;50.940;3.998;2024-01-06T12:42:19;5.50;99.90
48946;DHT22;34999;50.940;3.998;2024-01-06T12:44:51;5.50;99.90
48946;DHT22;34999;50.940;3.998;2024-01-06T12:47:19;5.50;99.90
48946;DHT22;34999;50.940;3.998;2024-01-06T12:49:48;5.50;99.90
48946;DHT22;34999;50.940;3.998;2024-01-06T12:52:18;5.60;99.90
48946;DHT22;34999;50.940;3.998;2024-01-06T12:54:46;5.60;99.90
48946;DHT22;34999;50.940;3.998;2024-01-06T12:57:14;5.60;99.90
48946;DHT22;34999;50.940;3.998;2024-01-06T12:59:43;5.60;99.90
48946;DHT22;34999;50.940;3.998;2024-01-06T13:02:11;5.60;99.90
48946;DHT22;34999;50.940;3.998;2024-01-06T13:04:39;5.60;99.90
48946;DHT22;34999;50.940;3.998;2024-01-06T13:07:08;5.60;99.90
48946;DHT22;34999;50.940;3.998;2024-01-06T13:09:38;5.50;99.90
48946;DHT22;34999;50.940;3.998;2024-01-06T13:12:07;5.50;99.90
48946;DHT22;34999;50.940;3.998;2024-01-06T13:14:35;5.50;99.90
48946;DHT22;34999;50.940;3.998;2024-01-06T13:17:05;5.50;99.90
48946;DHT22;34999;50.940;3.998;2024-01-06T13:19:33;5.50;99.90
48946;DHT22;34999;50.940;3.998;2024-01-06T13:22:02;5.40;99.90
48946;DHT22;34999;50.940;3.998;2024-01-06T13:24:30;5.40;99.90
48946;DHT22;34999;50.940;3.998;2024-01-06T13:27:00;5.50;99.90
48946;DHT22;34999;50.940;3.998;2024-01-06T13:29:29;5.50;99.90
48946;DHT22;34999;50.940;3.998;2024-01-06T13:31:58;5.40;99.90
48946;DHT22;34999;50.940;3.998;2024-01-06T13:34:27;5.40;99.90
48946;DHT22;34999;50.940;3.998;2024-01-06T13:36:57;5.40;99.90
48946;DHT22;34999;50.940;3.998;2024-01-06T13:39:25;5.40;99.90
48946;DHT22;34999;50.940;3.998;2024-01-06T13:41:54;5.40;99.90
48946;DHT22;34999;50.940;3.998;2024-01-06T13:44:23;5.50;99.90
48946;DHT22;34999;50.940;3.998;2024-01-06T13:46:52;5.50;99.90
48946;DHT22;34999;50.940;3.998;2024-01-06T13:49:21;5.50;99.90
48946;DHT22;34999;50.940;3.998;2024-01-06T13:51:50;5.50;99.90
48946;DHT22;34999;50.940;3.998;2024-01-06T13:54:19;5.50;99.90
48946;DHT22;34999;50.940;3.998;2024-01-06T13:56:47;5.50;99.90
48946;DHT22;34999;50.940;3.998;2024-01-06T13:59:15;5.50;99.90
48946;DHT22;34999;50.940;3.998;2024-01-06T14:01:45;5.60;99.90
48946;DHT22;34999;50.940;3.998;2024-01-06T14:04:14;5.60;99.90
48946;DHT22;34999;50.940;3.998;2024-01-06T14:06:44;5.60;99.90
48946;DHT22;34999;50.940;3.998;2024-01-06T14:09:15;5.50;99.90
48946;DHT22;34999;50.940;3.998;2024-01-06T14:11:43;5.40;99.90
48946;DHT22;34999;50.940;3.998;2024-01-06T14:14:11;5.40;99.90
48946;DHT22;34999;50.940;3.998;2024-01-06T14:16:40;5.40;99.90
48946;DHT22;34999;50.940;3.998;2024-01-06T14:19:11;5.40;99.90
48946;DHT22;34999;50.940;3.998;2024-01-06T14:21:41;5.40;99.90
48946;DHT22;34999;50.940;3.998;2024-01-06T14:24:09;5.30;99.90
48946;DHT22;34999;50.940;3.998;2024-01-06T14:26:37;5.30;99.90
48946;DHT22;34999;50.940;3.998;2024-01-06T14:29:07;5.40;99.90
48946;DHT22;34999;50.940;3.998;2024-01-06T14:31:35;5.40;99.90
48946;DHT22;34999;50.940;3.998;2024-01-06T14:34:04;5.40;99.90
48946;DHT22;34999;50.940;3.998;2024-01-06T14:36:33;5.50;99.90
48946;DHT22;34999;50.940;3.998;2024-01-06T14:39:02;5.40;99.90
48946;DHT22;34999;50.940;3.998;2024-01-06T14:41:35;5.40;99.90
48946;DHT22;34999;50.940;3.998;2024-01-06T14:44:04;5.40;99.90
48946;DHT22;34999;50.940;3.998;2024-01-06T14:46:32;5.40;99.90
48946;DHT22;34999;50.940;3.998;2024-01-06T14:49:02;5.40;99.90
48946;DHT22;34999;50.940;3.998;2024-01-06T14:51:32;5.50;99.90
48946;DHT22;34999;50.940;3.998;2024-01-06T14:54:00;5.50;99.90
48946;DHT22;34999;50.940;3.998;2024-01-06T14:56:29;5.50;99.90
48946;DHT22;34999;50.940;3.998;2024-01-06T14:58:57;5.50;99.90
48946;DHT22;34999;50.940;3.998;2024-01-06T15:01:25;5.40;99.90
48946;DHT22;34999;50.940;3.998;2024-01-06T15:03:54;5.40;99.90
48946;DHT22;34999;50.940;3.998;2024-01-06T15:06:22;5.40;99.90
48946;DHT22;34999;50.940;3.998;2024-01-06T15:08:52;5.40;99.90
48946;DHT22;34999;50.940;3.998;2024-01-06T15:11:20;5.40;99.90
48946;DHT22;34999;50.940;3.998;2024-01-06T15:13:49;5.30;99.90
48946;DHT22;34999;50.940;3.998;2024-01-06T15:16:17;5.20;99.90
48946;DHT22;34999;50.940;3.998;2024-01-06T15:18:45;5.30;99.90
48946;DHT22;34999;50.940;3.998;2024-01-06T15:21:14;5.30;99.90
48946;DHT22;34999;50.940;3.998;2024-01-06T15:23:47;5.20;99.90
48946;DHT22;34999;50.940;3.998;2024-01-06T15:26:22;5.20;99.90
48946;DHT22;34999;50.940;3.998;2024-01-06T15:28:51;5.10;99.90
48946;DHT22;34999;50.940;3.998;2024-01-06T15:31:19;5.20;99.90
48946;DHT22;34999;50.940;3.998;2024-01-06T15:33:47;5.10;99.90
48946;DHT22;34999;50.940;3.998;2024-01-06T15:36:16;5.10;99.90
48946;DHT22;34999;50.940;3.998;2024-01-06T15:38:44;5.10;99.90
48946;DHT22;34999;50.940;3.998;2024-01-06T15:41:12;5.10;99.90
48946;DHT22;34999;50.940;3.998;2024-01-06T15:43:42;5.10;99.90
48946;DHT22;34999;50.940;3.998;2024-01-06T15:46:10;5.10;99.90
48946;DHT22;34999;50.940;3.998;2024-01-06T15:48:39;5.10;99.90
48946;DHT22;34999;50.940;3.998;2024-01-06T15:51:07;5.10;99.90
48946;DHT22;34999;50.940;3.998;2024-01-06T15:53:36;5.10;99.90
48946;DHT22;34999;50.940;3.998;2024-01-06T15:56:04;5.00;99.90